Fair Haven, NY

7:21 AM EST on March 04, 2015 (GMT -0500)
APRSWXNET Fair Haven NY US | Change Station
CLOSE
Current Station
Personal Weather Station
Location: Sterling, NY
Elevation: 823 ft
Nearby Weather Stations

Elev 823 ft 43.30 °N, 76.70 °W | Updated 40 minutes ago

Overcast
Overcast
34 °F
Feels Like 27 °F
N
8
Wind Variable Wind from WNW
Gusts 0.0 mph

Today
High -- | Low -- °F
--% Chance of Precip.
Yesterday
High -- | Low -- °F
Precip. -- in
6:38 AM 5:59 PM
Waxing Gibbous, 99% visible
Pressure 29.81 in
Visibility 10.0 miles
Clouds Overcast 2900 ft
Windchill 27 °F
Dew Point 29 °F
Humidity 83%
Rainfall -999.00 in
Snow Depth Not available.
UV 0 out of 12
Pollen .40 out of 12
Air Quality Not available.
Flu Activity Not available.
METAR KFZY 041154Z AUTO 26012KT 10SM OVC029 01/M03 A2978 RMK AO2 SLP092 60000 70022 T00061033 10017 20006 51029

More Conditions Fewer Conditions

Pressure 29.81 in
Visibility 10.0 miles
Clouds Overcast 2900 ft
Windchill 27 °F
Dew Point 29 °F
Humidity 83%
Rainfall -999.00 in
Snow Depth Not available.
UV 0 out of 12
Pollen .40 out of 12
Air Quality Not available.
Flu Activity Not available.
METAR KFZY 041154Z AUTO 26012KT 10SM OVC029 01/M03 A2978 RMK AO2 SLP092 60000 70022 T00061033 10017 20006 51029

More Conditions Fewer Conditions

10-Day Weather Forecast

Almanac

Astronomy

Mar. 04, 2015 Rise Set
Actual Time
Civil Twilight
Nautical Twilight
Astronomical Twilight
Moon
Length of Visible Light
Length of Day
Tomorrow will be .
, % of the Moon is Illuminated

Today's Extremes

State Highs State Lows

Community

WunderPhotos

Upload Photos

1,802,438 photos uploaded!

WunderBlogs® & News

Nearby

Air Quality

  Air Quality AQ Index Pollutant
Not available.

Snow Depth

Station Depth Elevation

Earthquake Activity

City Distance Mag. Time & Date
Minimum magnitude displayed is 2.5.

Coastal Water Temperatures

Place Temperature

Nearby Weather Stations